sensor_id;sensor_type;location;lat;lon;timestamp;P1;durP1;ratioP1;P2;durP2;ratioP2
4726;SDS011;2377;51.734;8.950;2022-09-13T00:01:03;5.93;;;4.20;;
4726;SDS011;2377;51.734;8.950;2022-09-13T00:03:31;5.50;;;4.20;;
4726;SDS011;2377;51.734;8.950;2022-09-13T00:06:05;5.63;;;4.17;;
4726;SDS011;2377;51.734;8.950;2022-09-13T00:08:37;7.17;;;3.97;;
4726;SDS011;2377;51.734;8.950;2022-09-13T00:11:05;6.40;;;3.60;;
4726;SDS011;2377;51.734;8.950;2022-09-13T00:13:33;5.70;;;4.27;;
4726;SDS011;2377;51.734;8.950;2022-09-13T00:16:00;5.93;;;4.37;;
4726;SDS011;2377;51.734;8.950;2022-09-13T00:18:29;4.70;;;3.60;;
4726;SDS011;2377;51.734;8.950;2022-09-13T00:21:02;7.10;;;4.27;;
4726;SDS011;2377;51.734;8.950;2022-09-13T00:23:32;6.17;;;4.47;;
4726;SDS011;2377;51.734;8.950;2022-09-13T00:26:05;5.40;;;4.10;;
4726;SDS011;2377;51.734;8.950;2022-09-13T00:28:35;5.77;;;4.40;;
4726;SDS011;2377;51.734;8.950;2022-09-13T00:31:03;5.33;;;4.13;;
4726;SDS011;2377;51.734;8.950;2022-09-13T00:33:32;6.90;;;4.60;;
4726;SDS011;2377;51.734;8.950;2022-09-13T00:36:02;5.40;;;4.10;;
4726;SDS011;2377;51.734;8.950;2022-09-13T00:38:30;6.50;;;4.00;;
4726;SDS011;2377;51.734;8.950;2022-09-13T00:40:59;5.80;;;4.33;;
4726;SDS011;2377;51.734;8.950;2022-09-13T00:43:42;5.37;;;3.97;;
4726;SDS011;2377;51.734;8.950;2022-09-13T00:46:14;4.70;;;3.63;;
4726;SDS011;2377;51.734;8.950;2022-09-13T00:48:49;5.87;;;3.77;;
4726;SDS011;2377;51.734;8.950;2022-09-13T00:51:22;5.53;;;4.07;;
4726;SDS011;2377;51.734;8.950;2022-09-13T00:53:51;5.60;;;4.23;;
4726;SDS011;2377;51.734;8.950;2022-09-13T00:56:24;8.53;;;3.80;;
4726;SDS011;2377;51.734;8.950;2022-09-13T00:59:01;5.17;;;3.90;;
4726;SDS011;2377;51.734;8.950;2022-09-13T01:01:36;8.43;;;4.20;;
4726;SDS011;2377;51.734;8.950;2022-09-13T01:04:10;6.83;;;4.00;;
4726;SDS011;2377;51.734;8.950;2022-09-13T01:06:37;7.83;;;4.50;;
4726;SDS011;2377;51.734;8.950;2022-09-13T01:09:09;6.00;;;3.70;;
4726;SDS011;2377;51.734;8.950;2022-09-13T01:11:39;5.83;;;3.50;;
4726;SDS011;2377;51.734;8.950;2022-09-13T01:14:16;9.20;;;4.80;;
4726;SDS011;2377;51.734;8.950;2022-09-13T01:16:45;5.60;;;3.43;;
4726;SDS011;2377;51.734;8.950;2022-09-13T01:19:13;4.43;;;3.37;;
4726;SDS011;2377;51.734;8.950;2022-09-13T01:25:16;5.33;;;3.73;;
4726;SDS011;2377;51.734;8.950;2022-09-13T01:28:36;6.00;;;4.37;;
4726;SDS011;2377;51.734;8.950;2022-09-13T01:31:36;5.17;;;3.60;;
4726;SDS011;2377;51.734;8.950;2022-09-13T01:34:19;4.90;;;3.73;;
4726;SDS011;2377;51.734;8.950;2022-09-13T01:37:07;5.00;;;3.93;;
4726;SDS011;2377;51.734;8.950;2022-09-13T01:40:02;5.30;;;4.00;;
4726;SDS011;2377;51.734;8.950;2022-09-13T01:42:47;4.97;;;3.63;;
4726;SDS011;2377;51.734;8.950;2022-09-13T01:45:33;4.73;;;3.77;;
4726;SDS011;2377;51.734;8.950;2022-09-13T01:48:14;5.07;;;4.00;;
4726;SDS011;2377;51.734;8.950;2022-09-13T01:50:50;5.30;;;3.60;;
4726;SDS011;2377;51.734;8.950;2022-09-13T01:53:30;5.50;;;3.80;;
4726;SDS011;2377;51.734;8.950;2022-09-13T01:56:08;4.97;;;3.20;;
4726;SDS011;2377;51.734;8.950;2022-09-13T01:58:44;4.67;;;3.60;;
4726;SDS011;2377;51.734;8.950;2022-09-13T02:01:20;5.20;;;3.80;;
4726;SDS011;2377;51.734;8.950;2022-09-13T02:03:56;4.00;;;3.30;;
4726;SDS011;2377;51.734;8.950;2022-09-13T02:06:29;5.20;;;3.70;;
4726;SDS011;2377;51.734;8.950;2022-09-13T02:09:03;5.07;;;3.93;;
4726;SDS011;2377;51.734;8.950;2022-09-13T02:11:37;7.90;;;4.17;;
4726;SDS011;2377;51.734;8.950;2022-09-13T02:14:11;7.10;;;4.13;;
4726;SDS011;2377;51.734;8.950;2022-09-13T02:16:42;5.93;;;4.20;;
4726;SDS011;2377;51.734;8.950;2022-09-13T02:19:25;5.40;;;3.67;;
4726;SDS011;2377;51.734;8.950;2022-09-13T02:22:00;5.60;;;3.80;;
4726;SDS011;2377;51.734;8.950;2022-09-13T02:24:33;5.27;;;4.00;;
4726;SDS011;2377;51.734;8.950;2022-09-13T02:27:06;4.60;;;3.53;;
4726;SDS011;2377;51.734;8.950;2022-09-13T02:29:43;6.33;;;4.20;;
4726;SDS011;2377;51.734;8.950;2022-09-13T02:32:15;4.60;;;3.53;;
4726;SDS011;2377;51.734;8.950;2022-09-13T02:34:52;5.43;;;4.33;;
4726;SDS011;2377;51.734;8.950;2022-09-13T02:37:24;5.30;;;3.67;;
4726;SDS011;2377;51.734;8.950;2022-09-13T02:39:58;4.90;;;3.50;;
4726;SDS011;2377;51.734;8.950;2022-09-13T02:42:32;4.60;;;3.80;;
4726;SDS011;2377;51.734;8.950;2022-09-13T02:45:08;5.07;;;3.67;;
4726;SDS011;2377;51.734;8.950;2022-09-13T02:47:41;6.90;;;4.30;;
4726;SDS011;2377;51.734;8.950;2022-09-13T02:50:26;4.60;;;2.93;;
4726;SDS011;2377;51.734;8.950;2022-09-13T02:53:08;5.13;;;3.40;;
4726;SDS011;2377;51.734;8.950;2022-09-13T02:55:50;4.13;;;3.20;;
4726;SDS011;2377;51.734;8.950;2022-09-13T02:58:31;6.83;;;3.90;;
4726;SDS011;2377;51.734;8.950;2022-09-13T03:01:10;3.87;;;3.20;;
4726;SDS011;2377;51.734;8.950;2022-09-13T03:03:39;4.73;;;3.60;;
4726;SDS011;2377;51.734;8.950;2022-09-13T03:06:08;5.60;;;3.63;;
4726;SDS011;2377;51.734;8.950;2022-09-13T03:08:35;4.10;;;3.20;;
4726;SDS011;2377;51.734;8.950;2022-09-13T03:11:06;4.73;;;3.67;;
4726;SDS011;2377;51.734;8.950;2022-09-13T03:13:49;5.40;;;3.67;;
4726;SDS011;2377;51.734;8.950;2022-09-13T03:16:39;4.70;;;3.43;;
4726;SDS011;2377;51.734;8.950;2022-09-13T03:19:27;8.50;;;3.60;;
4726;SDS011;2377;51.734;8.950;2022-09-13T03:25:48;4.63;;;3.43;;
4726;SDS011;2377;51.734;8.950;2022-09-13T03:29:00;4.00;;;3.30;;
4726;SDS011;2377;51.734;8.950;2022-09-13T03:31:42;4.93;;;3.00;;
4726;SDS011;2377;51.734;8.950;2022-09-13T03:34:19;8.37;;;3.20;;
4726;SDS011;2377;51.734;8.950;2022-09-13T03:37:01;4.33;;;3.10;;
4726;SDS011;2377;51.734;8.950;2022-09-13T03:39:40;5.17;;;2.93;;
4726;SDS011;2377;51.734;8.950;2022-09-13T03:42:17;4.27;;;3.37;;
4726;SDS011;2377;51.734;8.950;2022-09-13T03:44:51;5.53;;;3.93;;
4726;SDS011;2377;51.734;8.950;2022-09-13T03:47:22;5.30;;;3.20;;
4726;SDS011;2377;51.734;8.950;2022-09-13T03:49:53;4.10;;;3.10;;
4726;SDS011;2377;51.734;8.950;2022-09-13T03:52:22;4.33;;;3.17;;
4726;SDS011;2377;51.734;8.950;2022-09-13T03:54:51;4.37;;;3.10;;
4726;SDS011;2377;51.734;8.950;2022-09-13T03:57:19;4.77;;;3.70;;
4726;SDS011;2377;51.734;8.950;2022-09-13T03:59:48;5.73;;;3.30;;
4726;SDS011;2377;51.734;8.950;2022-09-13T04:02:18;5.07;;;3.47;;
4726;SDS011;2377;51.734;8.950;2022-09-13T04:04:47;5.30;;;3.67;;
4726;SDS011;2377;51.734;8.950;2022-09-13T04:07:15;4.53;;;3.07;;
4726;SDS011;2377;51.734;8.950;2022-09-13T04:09:44;4.13;;;3.10;;
4726;SDS011;2377;51.734;8.950;2022-09-13T04:12:13;4.47;;;3.20;;
4726;SDS011;2377;51.734;8.950;2022-09-13T04:14:42;4.10;;;3.33;;
4726;SDS011;2377;51.734;8.950;2022-09-13T04:17:10;4.10;;;3.10;;
4726;SDS011;2377;51.734;8.950;2022-09-13T04:19:38;4.97;;;3.90;;
4726;SDS011;2377;51.734;8.950;2022-09-13T04:22:06;6.20;;;3.30;;
4726;SDS011;2377;51.734;8.950;2022-09-13T04:24:33;4.50;;;3.30;;
4726;SDS011;2377;51.734;8.950;2022-09-13T04:27:00;5.67;;;3.40;;
4726;SDS011;2377;51.734;8.950;2022-09-13T04:29:30;5.80;;;3.20;;
4726;SDS011;2377;51.734;8.950;2022-09-13T04:31:58;4.20;;;3.27;;
4726;SDS011;2377;51.734;8.950;2022-09-13T04:34:25;4.50;;;3.50;;
4726;SDS011;2377;51.734;8.950;2022-09-13T04:36:52;3.57;;;2.57;;
4726;SDS011;2377;51.734;8.950;2022-09-13T04:39:20;4.67;;;3.07;;
4726;SDS011;2377;51.734;8.950;2022-09-13T04:41:48;5.77;;;3.33;;
4726;SDS011;2377;51.734;8.950;2022-09-13T04:44:18;5.40;;;3.50;;
4726;SDS011;2377;51.734;8.950;2022-09-13T04:46:49;4.53;;;2.83;;
4726;SDS011;2377;51.734;8.950;2022-09-13T04:49:17;5.43;;;3.40;;
4726;SDS011;2377;51.734;8.950;2022-09-13T04:51:45;3.50;;;2.80;;
4726;SDS011;2377;51.734;8.950;2022-09-13T04:54:13;4.17;;;2.87;;
4726;SDS011;2377;51.734;8.950;2022-09-13T04:56:41;5.20;;;3.30;;
4726;SDS011;2377;51.734;8.950;2022-09-13T04:59:09;4.93;;;3.43;;
4726;SDS011;2377;51.734;8.950;2022-09-13T05:01:37;4.27;;;2.97;;
4726;SDS011;2377;51.734;8.950;2022-09-13T05:04:06;4.60;;;3.40;;
4726;SDS011;2377;51.734;8.950;2022-09-13T05:06:35;5.00;;;3.13;;
4726;SDS011;2377;51.734;8.950;2022-09-13T05:09:02;4.67;;;3.37;;
4726;SDS011;2377;51.734;8.950;2022-09-13T05:11:30;4.30;;;2.80;;
4726;SDS011;2377;51.734;8.950;2022-09-13T05:13:59;5.33;;;3.10;;
4726;SDS011;2377;51.734;8.950;2022-09-13T05:16:28;5.30;;;2.60;;
4726;SDS011;2377;51.734;8.950;2022-09-13T05:18:58;3.03;;;2.57;;
4726;SDS011;2377;51.734;8.950;2022-09-13T05:21:28;5.03;;;2.80;;
4726;SDS011;2377;51.734;8.950;2022-09-13T05:23:56;4.60;;;3.10;;
4726;SDS011;2377;51.734;8.950;2022-09-13T05:26:24;4.30;;;3.00;;
4726;SDS011;2377;51.734;8.950;2022-09-13T05:28:55;4.27;;;3.37;;
4726;SDS011;2377;51.734;8.950;2022-09-13T05:31:23;5.03;;;3.40;;
4726;SDS011;2377;51.734;8.950;2022-09-13T05:33:52;4.37;;;3.00;;
4726;SDS011;2377;51.734;8.950;2022-09-13T05:36:22;4.53;;;3.10;;
4726;SDS011;2377;51.734;8.950;2022-09-13T05:38:52;5.80;;;2.93;;
4726;SDS011;2377;51.734;8.950;2022-09-13T05:41:20;4.00;;;2.90;;
4726;SDS011;2377;51.734;8.950;2022-09-13T05:43:50;4.20;;;3.27;;
4726;SDS011;2377;51.734;8.950;2022-09-13T05:46:30;4.67;;;3.10;;
4726;SDS011;2377;51.734;8.950;2022-09-13T05:48:57;5.00;;;3.30;;
4726;SDS011;2377;51.734;8.950;2022-09-13T05:51:24;4.63;;;3.20;;
4726;SDS011;2377;51.734;8.950;2022-09-13T05:53:53;4.73;;;3.20;;
4726;SDS011;2377;51.734;8.950;2022-09-13T05:56:22;3.80;;;2.97;;
4726;SDS011;2377;51.734;8.950;2022-09-13T05:58:51;9.00;;;3.20;;
4726;SDS011;2377;51.734;8.950;2022-09-13T06:01:19;5.70;;;3.80;;
4726;SDS011;2377;51.734;8.950;2022-09-13T06:03:50;5.30;;;3.10;;
4726;SDS011;2377;51.734;8.950;2022-09-13T06:06:19;3.67;;;2.70;;
4726;SDS011;2377;51.734;8.950;2022-09-13T06:08:50;4.40;;;3.13;;
4726;SDS011;2377;51.734;8.950;2022-09-13T06:11:20;4.80;;;3.30;;
4726;SDS011;2377;51.734;8.950;2022-09-13T06:13:49;4.50;;;3.37;;
4726;SDS011;2377;51.734;8.950;2022-09-13T06:16:17;4.77;;;3.30;;
4726;SDS011;2377;51.734;8.950;2022-09-13T06:18:44;4.90;;;3.63;;
4726;SDS011;2377;51.734;8.950;2022-09-13T06:21:13;4.40;;;3.50;;
4726;SDS011;2377;51.734;8.950;2022-09-13T06:23:42;4.53;;;3.83;;
4726;SDS011;2377;51.734;8.950;2022-09-13T06:26:12;3.97;;;3.07;;
4726;SDS011;2377;51.734;8.950;2022-09-13T06:28:42;5.07;;;3.30;;
4726;SDS011;2377;51.734;8.950;2022-09-13T06:31:13;5.63;;;2.80;;
4726;SDS011;2377;51.734;8.950;2022-09-13T06:33:43;4.00;;;3.30;;
4726;SDS011;2377;51.734;8.950;2022-09-13T06:36:11;4.80;;;3.43;;
4726;SDS011;2377;51.734;8.950;2022-09-13T06:38:42;3.70;;;2.97;;
4726;SDS011;2377;51.734;8.950;2022-09-13T06:41:12;4.50;;;3.20;;
4726;SDS011;2377;51.734;8.950;2022-09-13T06:43:42;4.57;;;3.70;;
4726;SDS011;2377;51.734;8.950;2022-09-13T06:46:10;5.67;;;3.50;;
4726;SDS011;2377;51.734;8.950;2022-09-13T06:48:41;4.33;;;2.97;;
4726;SDS011;2377;51.734;8.950;2022-09-13T06:51:11;4.63;;;3.00;;
4726;SDS011;2377;51.734;8.950;2022-09-13T06:53:40;8.00;;;3.03;;
4726;SDS011;2377;51.734;8.950;2022-09-13T06:56:10;3.90;;;3.00;;
4726;SDS011;2377;51.734;8.950;2022-09-13T06:58:42;8.20;;;3.00;;
4726;SDS011;2377;51.734;8.950;2022-09-13T07:01:12;4.50;;;3.57;;
4726;SDS011;2377;51.734;8.950;2022-09-13T07:03:41;5.10;;;3.43;;
4726;SDS011;2377;51.734;8.950;2022-09-13T07:06:12;4.50;;;3.30;;
4726;SDS011;2377;51.734;8.950;2022-09-13T07:08:41;5.50;;;3.80;;
4726;SDS011;2377;51.734;8.950;2022-09-13T07:11:11;4.30;;;3.03;;
4726;SDS011;2377;51.734;8.950;2022-09-13T07:13:46;4.03;;;2.90;;
4726;SDS011;2377;51.734;8.950;2022-09-13T07:16:14;4.33;;;3.27;;
4726;SDS011;2377;51.734;8.950;2022-09-13T07:18:42;5.47;;;4.03;;
4726;SDS011;2377;51.734;8.950;2022-09-13T07:21:10;4.47;;;3.40;;
4726;SDS011;2377;51.734;8.950;2022-09-13T07:23:38;6.67;;;3.67;;
4726;SDS011;2377;51.734;8.950;2022-09-13T07:26:05;4.40;;;2.87;;
4726;SDS011;2377;51.734;8.950;2022-09-13T07:28:36;5.07;;;3.60;;
4726;SDS011;2377;51.734;8.950;2022-09-13T07:31:08;3.93;;;3.20;;
4726;SDS011;2377;51.734;8.950;2022-09-13T07:33:38;5.83;;;3.50;;
4726;SDS011;2377;51.734;8.950;2022-09-13T07:36:08;4.83;;;3.60;;
4726;SDS011;2377;51.734;8.950;2022-09-13T07:38:37;5.53;;;3.43;;
4726;SDS011;2377;51.734;8.950;2022-09-13T07:41:09;4.40;;;2.73;;
4726;SDS011;2377;51.734;8.950;2022-09-13T07:43:40;6.27;;;2.67;;
4726;SDS011;2377;51.734;8.950;2022-09-13T07:46:08;4.50;;;3.00;;
4726;SDS011;2377;51.734;8.950;2022-09-13T07:48:38;6.37;;;3.20;;
4726;SDS011;2377;51.734;8.950;2022-09-13T07:51:08;6.77;;;2.97;;
4726;SDS011;2377;51.734;8.950;2022-09-13T07:53:40;5.57;;;3.00;;
4726;SDS011;2377;51.734;8.950;2022-09-13T07:56:09;6.03;;;3.30;;
4726;SDS011;2377;51.734;8.950;2022-09-13T07:58:39;5.03;;;3.07;;
4726;SDS011;2377;51.734;8.950;2022-09-13T08:01:10;4.90;;;2.90;;
4726;SDS011;2377;51.734;8.950;2022-09-13T08:03:40;5.23;;;3.07;;
4726;SDS011;2377;51.734;8.950;2022-09-13T08:06:08;6.87;;;3.17;;
4726;SDS011;2377;51.734;8.950;2022-09-13T08:08:36;5.37;;;3.37;;
4726;SDS011;2377;51.734;8.950;2022-09-13T08:11:04;5.33;;;3.37;;
4726;SDS011;2377;51.734;8.950;2022-09-13T08:13:32;7.60;;;3.90;;
4726;SDS011;2377;51.734;8.950;2022-09-13T08:16:01;4.37;;;2.97;;
4726;SDS011;2377;51.734;8.950;2022-09-13T08:18:31;6.63;;;3.67;;
4726;SDS011;2377;51.734;8.950;2022-09-13T08:20:59;6.47;;;3.63;;
4726;SDS011;2377;51.734;8.950;2022-09-13T08:23:27;8.53;;;4.57;;
4726;SDS011;2377;51.734;8.950;2022-09-13T08:25:59;8.97;;;4.50;;
4726;SDS011;2377;51.734;8.950;2022-09-13T08:28:27;8.40;;;3.60;;
4726;SDS011;2377;51.734;8.950;2022-09-13T08:31:02;8.60;;;3.83;;
4726;SDS011;2377;51.734;8.950;2022-09-13T08:33:31;5.43;;;3.73;;
4726;SDS011;2377;51.734;8.950;2022-09-13T08:35:58;6.70;;;4.50;;
4726;SDS011;2377;51.734;8.950;2022-09-13T08:38:26;5.83;;;4.07;;
4726;SDS011;2377;51.734;8.950;2022-09-13T08:40:55;7.80;;;4.30;;
4726;SDS011;2377;51.734;8.950;2022-09-13T08:43:28;7.57;;;4.50;;
4726;SDS011;2377;51.734;8.950;2022-09-13T08:46:11;6.60;;;4.40;;
4726;SDS011;2377;51.734;8.950;2022-09-13T08:48:49;6.40;;;4.23;;
4726;SDS011;2377;51.734;8.950;2022-09-13T08:51:26;8.10;;;4.93;;
4726;SDS011;2377;51.734;8.950;2022-09-13T08:53:57;7.87;;;6.33;;
4726;SDS011;2377;51.734;8.950;2022-09-13T08:56:28;8.20;;;5.60;;
4726;SDS011;2377;51.734;8.950;2022-09-13T08:59:17;9.13;;;4.63;;
4726;SDS011;2377;51.734;8.950;2022-09-13T09:02:04;5.27;;;3.70;;
4726;SDS011;2377;51.734;8.950;2022-09-13T09:04:55;7.37;;;4.33;;
4726;SDS011;2377;51.734;8.950;2022-09-13T09:07:37;8.40;;;4.23;;
4726;SDS011;2377;51.734;8.950;2022-09-13T09:10:12;7.10;;;3.97;;
4726;SDS011;2377;51.734;8.950;2022-09-13T09:12:46;8.23;;;4.60;;
4726;SDS011;2377;51.734;8.950;2022-09-13T09:15:18;7.70;;;5.10;;
4726;SDS011;2377;51.734;8.950;2022-09-13T09:17:52;10.90;;;5.17;;
4726;SDS011;2377;51.734;8.950;2022-09-13T09:20:26;8.37;;;4.63;;
4726;SDS011;2377;51.734;8.950;2022-09-13T09:22:59;6.90;;;4.67;;
4726;SDS011;2377;51.734;8.950;2022-09-13T09:25:32;9.03;;;5.90;;
4726;SDS011;2377;51.734;8.950;2022-09-13T09:28:00;7.10;;;4.57;;
4726;SDS011;2377;51.734;8.950;2022-09-13T09:30:38;7.53;;;5.30;;
4726;SDS011;2377;51.734;8.950;2022-09-13T09:33:21;8.70;;;4.90;;
4726;SDS011;2377;51.734;8.950;2022-09-13T09:36:08;9.00;;;5.10;;
4726;SDS011;2377;51.734;8.950;2022-09-13T09:38:46;8.43;;;5.27;;
4726;SDS011;2377;51.734;8.950;2022-09-13T09:41:23;8.30;;;6.03;;
4726;SDS011;2377;51.734;8.950;2022-09-13T09:43:55;10.17;;;5.80;;
4726;SDS011;2377;51.734;8.950;2022-09-13T09:46:32;5.90;;;4.77;;
4726;SDS011;2377;51.734;8.950;2022-09-13T09:49:06;8.73;;;4.53;;
4726;SDS011;2377;51.734;8.950;2022-09-13T09:51:56;7.43;;;4.47;;
4726;SDS011;2377;51.734;8.950;2022-09-13T09:54:26;6.57;;;5.00;;
4726;SDS011;2377;51.734;8.950;2022-09-13T09:56:55;7.40;;;5.17;;
4726;SDS011;2377;51.734;8.950;2022-09-13T09:59:24;7.97;;;5.23;;
4726;SDS011;2377;51.734;8.950;2022-09-13T10:01:55;8.90;;;6.73;;
4726;SDS011;2377;51.734;8.950;2022-09-13T10:04:24;7.63;;;5.77;;
4726;SDS011;2377;51.734;8.950;2022-09-13T10:07:07;8.90;;;5.90;;
4726;SDS011;2377;51.734;8.950;2022-09-13T10:09:51;8.50;;;6.10;;
4726;SDS011;2377;51.734;8.950;2022-09-13T10:12:28;9.40;;;5.83;;
4726;SDS011;2377;51.734;8.950;2022-09-13T10:15:04;11.40;;;6.43;;
4726;SDS011;2377;51.734;8.950;2022-09-13T10:17:42;8.73;;;6.40;;
4726;SDS011;2377;51.734;8.950;2022-09-13T10:20:27;9.17;;;5.70;;
4726;SDS011;2377;51.734;8.950;2022-09-13T10:23:09;9.70;;;6.70;;
4726;SDS011;2377;51.734;8.950;2022-09-13T10:25:43;12.30;;;5.50;;
4726;SDS011;2377;51.734;8.950;2022-09-13T10:28:23;9.47;;;5.30;;
4726;SDS011;2377;51.734;8.950;2022-09-13T10:30:52;7.63;;;5.70;;
4726;SDS011;2377;51.734;8.950;2022-09-13T10:33:25;9.40;;;6.13;;
4726;SDS011;2377;51.734;8.950;2022-09-13T10:35:59;11.63;;;6.33;;
4726;SDS011;2377;51.734;8.950;2022-09-13T10:38:30;10.27;;;6.73;;
4726;SDS011;2377;51.734;8.950;2022-09-13T10:41:02;10.77;;;7.30;;
4726;SDS011;2377;51.734;8.950;2022-09-13T10:43:33;9.33;;;6.03;;
4726;SDS011;2377;51.734;8.950;2022-09-13T10:46:02;12.50;;;7.60;;
4726;SDS011;2377;51.734;8.950;2022-09-13T10:48:43;13.47;;;8.60;;
4726;SDS011;2377;51.734;8.950;2022-09-13T10:51:27;11.97;;;8.00;;
4726;SDS011;2377;51.734;8.950;2022-09-13T10:54:08;10.63;;;8.20;;
4726;SDS011;2377;51.734;8.950;2022-09-13T10:56:45;13.93;;;8.80;;
4726;SDS011;2377;51.734;8.950;2022-09-13T10:59:15;12.80;;;9.00;;
4726;SDS011;2377;51.734;8.950;2022-09-13T11:01:52;11.43;;;6.87;;
4726;SDS011;2377;51.734;8.950;2022-09-13T11:04:55;12.60;;;8.17;;
4726;SDS011;2377;51.734;8.950;2022-09-13T11:07:45;13.43;;;8.53;;
4726;SDS011;2377;51.734;8.950;2022-09-13T11:10:43;10.70;;;7.87;;
4726;SDS011;2377;51.734;8.950;2022-09-13T11:13:27;18.70;;;9.80;;
4726;SDS011;2377;51.734;8.950;2022-09-13T11:16:11;10.70;;;8.40;;
4726;SDS011;2377;51.734;8.950;2022-09-13T11:19:02;10.60;;;8.10;;
4726;SDS011;2377;51.734;8.950;2022-09-13T11:22:30;11.87;;;7.93;;
4726;SDS011;2377;51.734;8.950;2022-09-13T11:25:28;12.03;;;8.40;;
4726;SDS011;2377;51.734;8.950;2022-09-13T11:28:18;20.63;;;9.73;;
4726;SDS011;2377;51.734;8.950;2022-09-13T11:31:00;13.00;;;9.03;;
4726;SDS011;2377;51.734;8.950;2022-09-13T11:33:58;11.47;;;7.73;;
4726;SDS011;2377;51.734;8.950;2022-09-13T11:36:52;14.43;;;9.10;;
4726;SDS011;2377;51.734;8.950;2022-09-13T11:39:40;13.10;;;9.73;;
4726;SDS011;2377;51.734;8.950;2022-09-13T11:42:25;15.37;;;9.27;;
4726;SDS011;2377;51.734;8.950;2022-09-13T11:45:14;14.97;;;9.73;;
4726;SDS011;2377;51.734;8.950;2022-09-13T11:47:52;15.93;;;9.57;;
4726;SDS011;2377;51.734;8.950;2022-09-13T11:51:01;15.90;;;9.13;;
4726;SDS011;2377;51.734;8.950;2022-09-13T11:53:53;18.33;;;9.53;;
4726;SDS011;2377;51.734;8.950;2022-09-13T11:56:42;15.73;;;10.17;;
4726;SDS011;2377;51.734;8.950;2022-09-13T11:59:17;12.47;;;9.10;;
4726;SDS011;2377;51.734;8.950;2022-09-13T12:02:00;17.87;;;10.17;;
4726;SDS011;2377;51.734;8.950;2022-09-13T12:04:43;16.67;;;10.60;;
4726;SDS011;2377;51.734;8.950;2022-09-13T12:07:23;15.57;;;11.80;;
4726;SDS011;2377;51.734;8.950;2022-09-13T12:10:02;14.67;;;9.80;;
4726;SDS011;2377;51.734;8.950;2022-09-13T12:12:40;15.87;;;11.00;;
4726;SDS011;2377;51.734;8.950;2022-09-13T12:15:14;16.20;;;10.70;;
4726;SDS011;2377;51.734;8.950;2022-09-13T12:17:47;19.53;;;12.07;;
4726;SDS011;2377;51.734;8.950;2022-09-13T12:20:21;15.37;;;11.00;;
4726;SDS011;2377;51.734;8.950;2022-09-13T12:23:00;15.90;;;9.67;;
4726;SDS011;2377;51.734;8.950;2022-09-13T12:25:35;21.13;;;12.30;;
4726;SDS011;2377;51.734;8.950;2022-09-13T12:28:15;19.93;;;11.33;;
4726;SDS011;2377;51.734;8.950;2022-09-13T12:30:50;20.60;;;13.60;;
4726;SDS011;2377;51.734;8.950;2022-09-13T12:33:22;21.00;;;12.43;;
4726;SDS011;2377;51.734;8.950;2022-09-13T12:35:58;22.60;;;12.27;;
4726;SDS011;2377;51.734;8.950;2022-09-13T12:42:25;18.00;;;11.47;;
4726;SDS011;2377;51.734;8.950;2022-09-13T12:45:21;17.97;;;12.40;;
4726;SDS011;2377;51.734;8.950;2022-09-13T12:48:12;16.10;;;10.97;;
4726;SDS011;2377;51.734;8.950;2022-09-13T12:50:59;18.37;;;11.43;;
4726;SDS011;2377;51.734;8.950;2022-09-13T12:54:01;18.27;;;9.87;;
4726;SDS011;2377;51.734;8.950;2022-09-13T12:57:04;11.20;;;8.00;;
4726;SDS011;2377;51.734;8.950;2022-09-13T12:59:53;12.37;;;8.30;;
4726;SDS011;2377;51.734;8.950;2022-09-13T13:02:49;12.80;;;7.50;;
4726;SDS011;2377;51.734;8.950;2022-09-13T13:05:30;11.30;;;8.47;;
4726;SDS011;2377;51.734;8.950;2022-09-13T13:08:04;10.17;;;6.93;;
4726;SDS011;2377;51.734;8.950;2022-09-13T13:10:43;19.07;;;10.20;;
4726;SDS011;2377;51.734;8.950;2022-09-13T13:13:29;18.53;;;10.37;;
4726;SDS011;2377;51.734;8.950;2022-09-13T13:16:05;13.13;;;7.70;;
4726;SDS011;2377;51.734;8.950;2022-09-13T13:18:58;13.87;;;10.27;;
4726;SDS011;2377;51.734;8.950;2022-09-13T13:21:32;14.30;;;9.13;;
4726;SDS011;2377;51.734;8.950;2022-09-13T13:33:17;13.10;;;8.83;;
4726;SDS011;2377;51.734;8.950;2022-09-13T13:35:51;10.67;;;7.90;;
4726;SDS011;2377;51.734;8.950;2022-09-13T13:53:44;9.30;;;5.77;;
4726;SDS011;2377;51.734;8.950;2022-09-13T13:56:21;12.70;;;8.10;;
4726;SDS011;2377;51.734;8.950;2022-09-13T13:58:58;8.77;;;6.53;;
4726;SDS011;2377;51.734;8.950;2022-09-13T14:01:38;10.20;;;7.20;;
4726;SDS011;2377;51.734;8.950;2022-09-13T14:07:37;9.67;;;6.80;;
4726;SDS011;2377;51.734;8.950;2022-09-13T14:10:27;8.00;;;5.90;;
4726;SDS011;2377;51.734;8.950;2022-09-13T14:13:27;8.97;;;5.67;;
4726;SDS011;2377;51.734;8.950;2022-09-13T14:16:14;9.10;;;7.43;;
4726;SDS011;2377;51.734;8.950;2022-09-13T14:19:02;10.23;;;7.00;;
4726;SDS011;2377;51.734;8.950;2022-09-13T14:24:38;10.80;;;8.03;;
4726;SDS011;2377;51.734;8.950;2022-09-13T14:27:12;9.40;;;7.13;;
4726;SDS011;2377;51.734;8.950;2022-09-13T14:29:43;8.80;;;7.27;;
4726;SDS011;2377;51.734;8.950;2022-09-13T14:32:17;10.70;;;6.60;;
4726;SDS011;2377;51.734;8.950;2022-09-13T14:34:52;13.20;;;6.70;;
4726;SDS011;2377;51.734;8.950;2022-09-13T14:37:24;8.63;;;6.10;;
4726;SDS011;2377;51.734;8.950;2022-09-13T14:39:57;11.33;;;6.93;;
4726;SDS011;2377;51.734;8.950;2022-09-13T14:42:37;8.70;;;6.60;;
4726;SDS011;2377;51.734;8.950;2022-09-13T14:45:10;9.17;;;6.60;;
4726;SDS011;2377;51.734;8.950;2022-09-13T14:47:42;12.30;;;8.03;;
4726;SDS011;2377;51.734;8.950;2022-09-13T14:50:23;9.80;;;5.83;;
4726;SDS011;2377;51.734;8.950;2022-09-13T14:52:54;7.20;;;5.40;;
4726;SDS011;2377;51.734;8.950;2022-09-13T14:55:29;9.03;;;6.20;;
4726;SDS011;2377;51.734;8.950;2022-09-13T14:58:03;9.03;;;6.03;;
4726;SDS011;2377;51.734;8.950;2022-09-13T15:00:44;9.40;;;6.17;;
4726;SDS011;2377;51.734;8.950;2022-09-13T15:03:18;10.77;;;6.43;;
4726;SDS011;2377;51.734;8.950;2022-09-13T15:05:49;10.87;;;7.43;;
4726;SDS011;2377;51.734;8.950;2022-09-13T15:08:39;11.33;;;6.43;;
4726;SDS011;2377;51.734;8.950;2022-09-13T15:11:14;7.87;;;5.63;;
4726;SDS011;2377;51.734;8.950;2022-09-13T15:14:00;9.47;;;6.53;;
4726;SDS011;2377;51.734;8.950;2022-09-13T15:16:45;8.70;;;6.10;;
4726;SDS011;2377;51.734;8.950;2022-09-13T15:19:16;9.27;;;6.63;;
4726;SDS011;2377;51.734;8.950;2022-09-13T15:22:00;10.27;;;5.90;;
4726;SDS011;2377;51.734;8.950;2022-09-13T15:24:42;11.73;;;7.10;;
4726;SDS011;2377;51.734;8.950;2022-09-13T15:27:21;10.23;;;6.03;;
4726;SDS011;2377;51.734;8.950;2022-09-13T15:29:55;11.67;;;7.80;;
4726;SDS011;2377;51.734;8.950;2022-09-13T15:32:30;8.80;;;6.67;;
4726;SDS011;2377;51.734;8.950;2022-09-13T15:35:14;14.73;;;9.03;;
4726;SDS011;2377;51.734;8.950;2022-09-13T15:37:56;13.77;;;6.97;;
4726;SDS011;2377;51.734;8.950;2022-09-13T15:40:27;9.10;;;5.97;;
4726;SDS011;2377;51.734;8.950;2022-09-13T15:42:56;10.57;;;7.93;;
4726;SDS011;2377;51.734;8.950;2022-09-13T15:45:24;7.60;;;5.40;;
4726;SDS011;2377;51.734;8.950;2022-09-13T15:47:51;9.60;;;7.10;;
4726;SDS011;2377;51.734;8.950;2022-09-13T15:50:23;12.20;;;7.37;;
4726;SDS011;2377;51.734;8.950;2022-09-13T15:52:56;13.43;;;6.57;;
4726;SDS011;2377;51.734;8.950;2022-09-13T15:55:24;11.87;;;7.23;;
4726;SDS011;2377;51.734;8.950;2022-09-13T15:57:53;9.93;;;6.60;;
4726;SDS011;2377;51.734;8.950;2022-09-13T16:00:23;18.33;;;6.10;;
4726;SDS011;2377;51.734;8.950;2022-09-13T16:02:52;8.93;;;6.73;;
4726;SDS011;2377;51.734;8.950;2022-09-13T16:05:20;11.43;;;7.53;;
4726;SDS011;2377;51.734;8.950;2022-09-13T16:07:47;10.97;;;7.07;;
4726;SDS011;2377;51.734;8.950;2022-09-13T16:10:15;16.20;;;10.03;;
4726;SDS011;2377;51.734;8.950;2022-09-13T16:12:46;10.07;;;7.83;;
4726;SDS011;2377;51.734;8.950;2022-09-13T16:15:14;11.50;;;7.20;;
4726;SDS011;2377;51.734;8.950;2022-09-13T16:17:42;9.73;;;6.27;;
4726;SDS011;2377;51.734;8.950;2022-09-13T16:20:11;9.90;;;7.37;;
4726;SDS011;2377;51.734;8.950;2022-09-13T16:22:40;8.73;;;6.60;;
4726;SDS011;2377;51.734;8.950;2022-09-13T16:25:08;7.03;;;5.43;;
4726;SDS011;2377;51.734;8.950;2022-09-13T16:27:38;12.73;;;6.50;;
4726;SDS011;2377;51.734;8.950;2022-09-13T16:30:06;10.03;;;5.73;;
4726;SDS011;2377;51.734;8.950;2022-09-13T16:32:38;11.97;;;7.20;;
4726;SDS011;2377;51.734;8.950;2022-09-13T16:35:08;9.63;;;6.23;;
4726;SDS011;2377;51.734;8.950;2022-09-13T16:37:36;9.83;;;6.30;;
4726;SDS011;2377;51.734;8.950;2022-09-13T16:40:05;11.33;;;6.80;;